sensor_id;sensor_type;location;lat;lon;timestamp;P1;durP1;ratioP1;P2;durP2;ratioP2
40931;SDS011;36257;46.052;12.540;2023-12-20T00:02:19;8.37;;;7.57;;
40931;SDS011;36257;46.052;12.540;2023-12-20T00:04:45;6.43;;;5.97;;
40931;SDS011;36257;46.052;12.540;2023-12-20T00:07:11;5.93;;;5.53;;
40931;SDS011;36257;46.052;12.540;2023-12-20T00:09:36;5.37;;;5.07;;
40931;SDS011;36257;46.052;12.540;2023-12-20T00:12:02;4.60;;;4.40;;
40931;SDS011;36257;46.052;12.540;2023-12-20T00:14:27;7.03;;;5.90;;
40931;SDS011;36257;46.052;12.540;2023-12-20T00:16:53;4.60;;;4.30;;
40931;SDS011;36257;46.052;12.540;2023-12-20T00:19:19;5.20;;;4.90;;
40931;SDS011;36257;46.052;12.540;2023-12-20T00:21:45;5.23;;;4.77;;
40931;SDS011;36257;46.052;12.540;2023-12-20T00:24:10;5.33;;;5.03;;
40931;SDS011;36257;46.052;12.540;2023-12-20T00:26:36;5.13;;;4.83;;
40931;SDS011;36257;46.052;12.540;2023-12-20T00:29:02;5.90;;;5.50;;
40931;SDS011;36257;46.052;12.540;2023-12-20T00:31:27;5.53;;;5.13;;
40931;SDS011;36257;46.052;12.540;2023-12-20T00:33:53;5.40;;;5.10;;
40931;SDS011;36257;46.052;12.540;2023-12-20T00:36:19;5.50;;;5.10;;
40931;SDS011;36257;46.052;12.540;2023-12-20T00:38:45;5.13;;;4.73;;
40931;SDS011;36257;46.052;12.540;2023-12-20T00:41:10;6.23;;;5.63;;
40931;SDS011;36257;46.052;12.540;2023-12-20T00:43:36;5.40;;;5.00;;
40931;SDS011;36257;46.052;12.540;2023-12-20T00:46:02;5.77;;;5.40;;
40931;SDS011;36257;46.052;12.540;2023-12-20T00:48:27;4.53;;;4.27;;
40931;SDS011;36257;46.052;12.540;2023-12-20T00:50:55;4.47;;;4.18;;
40931;SDS011;36257;46.052;12.540;2023-12-20T00:53:21;5.00;;;4.70;;
40931;SDS011;36257;46.052;12.540;2023-12-20T00:55:46;5.03;;;4.73;;
40931;SDS011;36257;46.052;12.540;2023-12-20T00:58:12;4.93;;;4.60;;
40931;SDS011;36257;46.052;12.540;2023-12-20T01:00:40;5.37;;;4.97;;
40931;SDS011;36257;46.052;12.540;2023-12-20T01:03:07;6.25;;;5.75;;
40931;SDS011;36257;46.052;12.540;2023-12-20T01:05:32;5.67;;;5.17;;
40931;SDS011;36257;46.052;12.540;2023-12-20T01:07:58;5.30;;;5.00;;
40931;SDS011;36257;46.052;12.540;2023-12-20T01:10:24;4.97;;;4.70;;
40931;SDS011;36257;46.052;12.540;2023-12-20T01:12:53;5.73;;;5.23;;
40931;SDS011;36257;46.052;12.540;2023-12-20T01:15:18;4.77;;;4.47;;
40931;SDS011;36257;46.052;12.540;2023-12-20T01:17:44;5.53;;;5.13;;
40931;SDS011;36257;46.052;12.540;2023-12-20T01:20:10;5.23;;;4.93;;
40931;SDS011;36257;46.052;12.540;2023-12-20T01:22:36;5.00;;;4.70;;
40931;SDS011;36257;46.052;12.540;2023-12-20T01:25:01;4.30;;;4.10;;
40931;SDS011;36257;46.052;12.540;2023-12-20T01:27:27;4.93;;;4.63;;
40931;SDS011;36257;46.052;12.540;2023-12-20T01:29:53;6.37;;;4.70;;
40931;SDS011;36257;46.052;12.540;2023-12-20T01:32:19;5.10;;;4.80;;
40931;SDS011;36257;46.052;12.540;2023-12-20T01:34:45;5.83;;;5.23;;
40931;SDS011;36257;46.052;12.540;2023-12-20T01:37:10;5.70;;;5.30;;
40931;SDS011;36257;46.052;12.540;2023-12-20T01:39:36;5.80;;;5.40;;
40931;SDS011;36257;46.052;12.540;2023-12-20T01:42:02;5.00;;;4.70;;
40931;SDS011;36257;46.052;12.540;2023-12-20T01:44:27;4.80;;;4.57;;
40931;SDS011;36257;46.052;12.540;2023-12-20T01:46:57;4.57;;;4.30;;
40931;SDS011;36257;46.052;12.540;2023-12-20T01:49:23;4.83;;;4.60;;
40931;SDS011;36257;46.052;12.540;2023-12-20T01:51:49;5.37;;;5.07;;
40931;SDS011;36257;46.052;12.540;2023-12-20T01:54:15;5.20;;;4.93;;
40931;SDS011;36257;46.052;12.540;2023-12-20T01:56:42;4.73;;;4.53;;
40931;SDS011;36257;46.052;12.540;2023-12-20T01:59:08;4.83;;;4.63;;
40931;SDS011;36257;46.052;12.540;2023-12-20T02:01:34;5.13;;;4.83;;
40931;SDS011;36257;46.052;12.540;2023-12-20T02:04:00;5.07;;;4.87;;
40931;SDS011;36257;46.052;12.540;2023-12-20T02:06:28;4.27;;;4.07;;
40931;SDS011;36257;46.052;12.540;2023-12-20T02:08:57;4.43;;;4.03;;
40931;SDS011;36257;46.052;12.540;2023-12-20T02:11:23;5.10;;;4.80;;
40931;SDS011;36257;46.052;12.540;2023-12-20T02:13:50;5.33;;;5.03;;
40931;SDS011;36257;46.052;12.540;2023-12-20T02:16:16;4.63;;;4.43;;
40931;SDS011;36257;46.052;12.540;2023-12-20T02:18:42;5.00;;;4.50;;
40931;SDS011;36257;46.052;12.540;2023-12-20T02:23:35;4.60;;;4.40;;
40931;SDS011;36257;46.052;12.540;2023-12-20T02:26:00;4.83;;;4.53;;
40931;SDS011;36257;46.052;12.540;2023-12-20T02:28:26;5.03;;;4.73;;
40931;SDS011;36257;46.052;12.540;2023-12-20T02:30:53;5.53;;;5.23;;
40931;SDS011;36257;46.052;12.540;2023-12-20T02:33:18;5.47;;;5.17;;
40931;SDS011;36257;46.052;12.540;2023-12-20T02:35:44;5.07;;;4.70;;
40931;SDS011;36257;46.052;12.540;2023-12-20T02:38:10;12.27;;;4.40;;
40931;SDS011;36257;46.052;12.540;2023-12-20T02:40:35;4.57;;;4.37;;
40931;SDS011;36257;46.052;12.540;2023-12-20T02:43:01;3.70;;;3.50;;
40931;SDS011;36257;46.052;12.540;2023-12-20T02:45:27;4.60;;;4.40;;
40931;SDS011;36257;46.052;12.540;2023-12-20T02:47:53;4.77;;;4.57;;
40931;SDS011;36257;46.052;12.540;2023-12-20T02:50:18;4.77;;;4.50;;
40931;SDS011;36257;46.052;12.540;2023-12-20T02:52:44;5.23;;;4.87;;
40931;SDS011;36257;46.052;12.540;2023-12-20T02:55:11;4.63;;;4.38;;
40931;SDS011;36257;46.052;12.540;2023-12-20T02:57:36;4.13;;;3.93;;
40931;SDS011;36257;46.052;12.540;2023-12-20T03:00:06;4.60;;;4.30;;
40931;SDS011;36257;46.052;12.540;2023-12-20T03:04:59;4.47;;;4.27;;
40931;SDS011;36257;46.052;12.540;2023-12-20T03:07:25;5.00;;;4.70;;
40931;SDS011;36257;46.052;12.540;2023-12-20T03:09:51;5.23;;;4.97;;
40931;SDS011;36257;46.052;12.540;2023-12-20T03:12:16;4.93;;;4.63;;
40931;SDS011;36257;46.052;12.540;2023-12-20T03:14:43;4.90;;;4.60;;
40931;SDS011;36257;46.052;12.540;2023-12-20T03:17:09;5.38;;;5.03;;
40931;SDS011;36257;46.052;12.540;2023-12-20T03:19:35;5.20;;;4.80;;
40931;SDS011;36257;46.052;12.540;2023-12-20T03:22:00;5.93;;;5.50;;
40931;SDS011;36257;46.052;12.540;2023-12-20T03:24:26;5.87;;;5.27;;
40931;SDS011;36257;46.052;12.540;2023-12-20T03:26:52;5.97;;;5.57;;
40931;SDS011;36257;46.052;12.540;2023-12-20T03:29:18;6.33;;;5.77;;
40931;SDS011;36257;46.052;12.540;2023-12-20T03:31:43;6.47;;;5.87;;
40931;SDS011;36257;46.052;12.540;2023-12-20T03:34:09;6.33;;;5.83;;
40931;SDS011;36257;46.052;12.540;2023-12-20T03:36:35;7.27;;;5.97;;
40931;SDS011;36257;46.052;12.540;2023-12-20T03:39:01;5.60;;;5.20;;
40931;SDS011;36257;46.052;12.540;2023-12-20T03:41:27;5.40;;;5.00;;
40931;SDS011;36257;46.052;12.540;2023-12-20T03:43:54;5.70;;;5.33;;
40931;SDS011;36257;46.052;12.540;2023-12-20T03:47:03;6.20;;;5.70;;
40931;SDS011;36257;46.052;12.540;2023-12-20T03:49:29;6.10;;;5.70;;
40931;SDS011;36257;46.052;12.540;2023-12-20T03:51:54;5.93;;;5.43;;
40931;SDS011;36257;46.052;12.540;2023-12-20T03:54:20;4.90;;;4.60;;
40931;SDS011;36257;46.052;12.540;2023-12-20T03:56:45;5.93;;;5.63;;
40931;SDS011;36257;46.052;12.540;2023-12-20T03:59:11;5.33;;;5.03;;
40931;SDS011;36257;46.052;12.540;2023-12-20T04:01:37;5.27;;;4.77;;
40931;SDS011;36257;46.052;12.540;2023-12-20T04:04:02;6.40;;;5.90;;
40931;SDS011;36257;46.052;12.540;2023-12-20T04:06:28;6.53;;;6.00;;
40931;SDS011;36257;46.052;12.540;2023-12-20T04:08:54;6.40;;;5.90;;
40931;SDS011;36257;46.052;12.540;2023-12-20T04:11:19;6.43;;;5.93;;
40931;SDS011;36257;46.052;12.540;2023-12-20T04:13:45;7.93;;;7.23;;
40931;SDS011;36257;46.052;12.540;2023-12-20T04:16:11;6.23;;;5.67;;
40931;SDS011;36257;46.052;12.540;2023-12-20T04:18:36;7.57;;;6.87;;
40931;SDS011;36257;46.052;12.540;2023-12-20T04:21:02;7.30;;;6.70;;
40931;SDS011;36257;46.052;12.540;2023-12-20T04:23:28;7.03;;;6.43;;
40931;SDS011;36257;46.052;12.540;2023-12-20T04:25:54;7.57;;;6.87;;
40931;SDS011;36257;46.052;12.540;2023-12-20T04:28:19;7.33;;;6.73;;
40931;SDS011;36257;46.052;12.540;2023-12-20T04:30:45;6.73;;;6.23;;
40931;SDS011;36257;46.052;12.540;2023-12-20T04:33:11;7.00;;;6.30;;
40931;SDS011;36257;46.052;12.540;2023-12-20T04:35:36;7.27;;;6.53;;
40931;SDS011;36257;46.052;12.540;2023-12-20T04:38:02;7.17;;;6.50;;
40931;SDS011;36257;46.052;12.540;2023-12-20T04:40:28;7.03;;;6.40;;
40931;SDS011;36257;46.052;12.540;2023-12-20T04:42:53;7.70;;;7.00;;
40931;SDS011;36257;46.052;12.540;2023-12-20T04:45:19;7.00;;;6.40;;
40931;SDS011;36257;46.052;12.540;2023-12-20T04:47:45;6.83;;;6.23;;
40931;SDS011;36257;46.052;12.540;2023-12-20T04:50:12;7.72;;;6.93;;
40931;SDS011;36257;46.052;12.540;2023-12-20T04:52:38;7.93;;;7.20;;
40931;SDS011;36257;46.052;12.540;2023-12-20T04:55:04;7.20;;;6.60;;
40931;SDS011;36257;46.052;12.540;2023-12-20T04:57:30;6.47;;;5.87;;
40931;SDS011;36257;46.052;12.540;2023-12-20T04:59:55;6.10;;;5.60;;
40931;SDS011;36257;46.052;12.540;2023-12-20T05:02:21;7.80;;;7.20;;
40931;SDS011;36257;46.052;12.540;2023-12-20T05:04:47;7.97;;;6.67;;
40931;SDS011;36257;46.052;12.540;2023-12-20T05:07:12;7.80;;;7.10;;
40931;SDS011;36257;46.052;12.540;2023-12-20T05:09:38;8.80;;;6.60;;
40931;SDS011;36257;46.052;12.540;2023-12-20T05:12:04;6.73;;;6.23;;
40931;SDS011;36257;46.052;12.540;2023-12-20T05:14:29;7.47;;;6.17;;
40931;SDS011;36257;46.052;12.540;2023-12-20T05:16:55;5.90;;;5.43;;
40931;SDS011;36257;46.052;12.540;2023-12-20T05:19:21;6.73;;;6.10;;
40931;SDS011;36257;46.052;12.540;2023-12-20T05:21:47;6.30;;;5.80;;
40931;SDS011;36257;46.052;12.540;2023-12-20T05:24:13;6.70;;;6.20;;
40931;SDS011;36257;46.052;12.540;2023-12-20T05:26:39;5.70;;;5.30;;
40931;SDS011;36257;46.052;12.540;2023-12-20T05:29:05;5.67;;;5.27;;
40931;SDS011;36257;46.052;12.540;2023-12-20T05:31:32;5.93;;;5.43;;
40931;SDS011;36257;46.052;12.540;2023-12-20T05:33:58;6.78;;;6.05;;
40931;SDS011;36257;46.052;12.540;2023-12-20T05:36:24;5.50;;;5.07;;
40931;SDS011;36257;46.052;12.540;2023-12-20T05:38:49;5.73;;;5.37;;
40931;SDS011;36257;46.052;12.540;2023-12-20T05:41:15;5.40;;;5.03;;
40931;SDS011;36257;46.052;12.540;2023-12-20T05:43:41;6.03;;;5.63;;
40931;SDS011;36257;46.052;12.540;2023-12-20T05:46:06;6.57;;;6.07;;
40931;SDS011;36257;46.052;12.540;2023-12-20T05:48:34;6.50;;;6.00;;
40931;SDS011;36257;46.052;12.540;2023-12-20T05:51:00;6.03;;;5.53;;
40931;SDS011;36257;46.052;12.540;2023-12-20T05:53:25;6.40;;;5.80;;
40931;SDS011;36257;46.052;12.540;2023-12-20T05:55:51;7.03;;;6.43;;
40931;SDS011;36257;46.052;12.540;2023-12-20T05:58:17;11.33;;;8.87;;
40931;SDS011;36257;46.052;12.540;2023-12-20T06:00:42;10.47;;;9.30;;
40931;SDS011;36257;46.052;12.540;2023-12-20T06:03:08;11.33;;;10.17;;
40931;SDS011;36257;46.052;12.540;2023-12-20T06:05:33;10.00;;;8.13;;
40931;SDS011;36257;46.052;12.540;2023-12-20T06:07:59;9.00;;;8.20;;
40931;SDS011;36257;46.052;12.540;2023-12-20T06:10:27;7.43;;;6.83;;
40931;SDS011;36257;46.052;12.540;2023-12-20T06:12:53;6.03;;;5.57;;
40931;SDS011;36257;46.052;12.540;2023-12-20T06:15:20;6.40;;;5.90;;
40931;SDS011;36257;46.052;12.540;2023-12-20T06:17:46;6.60;;;6.10;;
40931;SDS011;36257;46.052;12.540;2023-12-20T06:20:12;6.13;;;5.63;;
40931;SDS011;36257;46.052;12.540;2023-12-20T06:22:38;6.17;;;5.70;;
40931;SDS011;36257;46.052;12.540;2023-12-20T06:25:04;7.27;;;6.67;;
40931;SDS011;36257;46.052;12.540;2023-12-20T06:27:30;7.20;;;6.57;;
40931;SDS011;36257;46.052;12.540;2023-12-20T06:29:57;9.77;;;8.43;;
40931;SDS011;36257;46.052;12.540;2023-12-20T06:32:23;8.67;;;7.77;;
40931;SDS011;36257;46.052;12.540;2023-12-20T06:34:49;10.73;;;8.60;;
40931;SDS011;36257;46.052;12.540;2023-12-20T06:37:15;11.23;;;9.80;;
40931;SDS011;36257;46.052;12.540;2023-12-20T06:39:40;10.13;;;8.50;;
40931;SDS011;36257;46.052;12.540;2023-12-20T06:42:06;11.57;;;9.40;;
40931;SDS011;36257;46.052;12.540;2023-12-20T06:44:32;9.03;;;7.97;;
40931;SDS011;36257;46.052;12.540;2023-12-20T06:46:58;8.00;;;7.27;;
40931;SDS011;36257;46.052;12.540;2023-12-20T06:49:23;6.43;;;5.93;;
40931;SDS011;36257;46.052;12.540;2023-12-20T06:51:49;5.33;;;4.83;;
40931;SDS011;36257;46.052;12.540;2023-12-20T06:54:15;5.93;;;5.53;;
40931;SDS011;36257;46.052;12.540;2023-12-20T06:56:40;5.00;;;4.70;;
40931;SDS011;36257;46.052;12.540;2023-12-20T06:59:06;5.30;;;5.00;;
40931;SDS011;36257;46.052;12.540;2023-12-20T07:01:31;5.43;;;5.03;;
40931;SDS011;36257;46.052;12.540;2023-12-20T07:03:57;7.27;;;6.27;;
40931;SDS011;36257;46.052;12.540;2023-12-20T07:06:23;8.23;;;7.43;;
40931;SDS011;36257;46.052;12.540;2023-12-20T07:08:50;6.43;;;5.93;;
40931;SDS011;36257;46.052;12.540;2023-12-20T07:11:17;5.80;;;5.33;;
40931;SDS011;36257;46.052;12.540;2023-12-20T07:13:43;5.73;;;5.33;;
40931;SDS011;36257;46.052;12.540;2023-12-20T07:16:09;4.77;;;4.47;;
40931;SDS011;36257;46.052;12.540;2023-12-20T07:18:34;4.90;;;4.50;;
40931;SDS011;36257;46.052;12.540;2023-12-20T07:21:00;5.03;;;4.73;;
40931;SDS011;36257;46.052;12.540;2023-12-20T07:23:25;4.20;;;3.90;;
40931;SDS011;36257;46.052;12.540;2023-12-20T07:25:51;4.43;;;4.07;;
40931;SDS011;36257;46.052;12.540;2023-12-20T07:28:17;4.37;;;4.17;;
40931;SDS011;36257;46.052;12.540;2023-12-20T07:30:43;3.97;;;3.77;;
40931;SDS011;36257;46.052;12.540;2023-12-20T07:33:08;4.67;;;4.27;;
40931;SDS011;36257;46.052;12.540;2023-12-20T07:35:34;4.63;;;4.33;;
40931;SDS011;36257;46.052;12.540;2023-12-20T07:38:00;4.73;;;4.43;;
40931;SDS011;36257;46.052;12.540;2023-12-20T07:40:27;5.18;;;4.88;;
40931;SDS011;36257;46.052;12.540;2023-12-20T07:42:52;5.13;;;4.20;;
40931;SDS011;36257;46.052;12.540;2023-12-20T07:45:18;5.03;;;4.37;;
40931;SDS011;36257;46.052;12.540;2023-12-20T07:47:44;5.60;;;5.20;;
40931;SDS011;36257;46.052;12.540;2023-12-20T07:50:09;4.80;;;4.27;;
40931;SDS011;36257;46.052;12.540;2023-12-20T07:52:35;3.47;;;3.17;;
40931;SDS011;36257;46.052;12.540;2023-12-20T07:55:01;5.67;;;5.23;;
40931;SDS011;36257;46.052;12.540;2023-12-20T07:57:30;6.47;;;5.13;;
40931;SDS011;36257;46.052;12.540;2023-12-20T07:59:55;5.10;;;4.73;;
40931;SDS011;36257;46.052;12.540;2023-12-20T08:02:21;4.60;;;4.30;;
40931;SDS011;36257;46.052;12.540;2023-12-20T08:04:47;5.43;;;4.93;;
40931;SDS011;36257;46.052;12.540;2023-12-20T08:07:12;4.80;;;3.80;;
40931;SDS011;36257;46.052;12.540;2023-12-20T08:09:38;4.23;;;3.73;;
40931;SDS011;36257;46.052;12.540;2023-12-20T08:12:03;4.70;;;4.10;;
40931;SDS011;36257;46.052;12.540;2023-12-20T08:14:29;6.07;;;4.93;;
40931;SDS011;36257;46.052;12.540;2023-12-20T08:16:56;7.73;;;6.83;;
40931;SDS011;36257;46.052;12.540;2023-12-20T08:19:22;8.43;;;7.57;;
40931;SDS011;36257;46.052;12.540;2023-12-20T08:21:47;10.67;;;8.53;;
40931;SDS011;36257;46.052;12.540;2023-12-20T08:24:13;14.00;;;10.87;;
40931;SDS011;36257;46.052;12.540;2023-12-20T08:26:38;17.70;;;11.97;;
40931;SDS011;36257;46.052;12.540;2023-12-20T08:29:04;19.77;;;12.97;;
40931;SDS011;36257;46.052;12.540;2023-12-20T08:31:30;22.97;;;14.83;;
40931;SDS011;36257;46.052;12.540;2023-12-20T08:33:55;21.73;;;15.17;;
40931;SDS011;36257;46.052;12.540;2023-12-20T08:36:21;17.53;;;12.70;;
40931;SDS011;36257;46.052;12.540;2023-12-20T08:38:49;17.35;;;12.30;;
40931;SDS011;36257;46.052;12.540;2023-12-20T08:41:15;14.40;;;10.93;;
40931;SDS011;36257;46.052;12.540;2023-12-20T08:43:42;7.57;;;5.63;;
40931;SDS011;36257;46.052;12.540;2023-12-20T08:46:08;5.17;;;4.67;;
40931;SDS011;36257;46.052;12.540;2023-12-20T08:48:37;4.93;;;4.53;;
40931;SDS011;36257;46.052;12.540;2023-12-20T08:51:03;5.63;;;5.13;;
40931;SDS011;36257;46.052;12.540;2023-12-20T08:53:29;5.05;;;4.65;;
40931;SDS011;36257;46.052;12.540;2023-12-20T08:55:55;4.60;;;4.28;;
40931;SDS011;36257;46.052;12.540;2023-12-20T08:58:21;5.00;;;4.55;;
40931;SDS011;36257;46.052;12.540;2023-12-20T09:00:46;4.95;;;4.55;;
40931;SDS011;36257;46.052;12.540;2023-12-20T09:03:12;7.95;;;6.40;;
40931;SDS011;36257;46.052;12.540;2023-12-20T09:05:37;8.40;;;7.13;;
40931;SDS011;36257;46.052;12.540;2023-12-20T09:08:03;9.38;;;7.95;;
40931;SDS011;36257;46.052;12.540;2023-12-20T09:10:29;13.30;;;10.02;;
40931;SDS011;36257;46.052;12.540;2023-12-20T09:12:55;13.13;;;9.85;;
40931;SDS011;36257;46.052;12.540;2023-12-20T09:15:25;10.77;;;7.75;;
40931;SDS011;36257;46.052;12.540;2023-12-20T09:17:51;7.13;;;6.43;;
40931;SDS011;36257;46.052;12.540;2023-12-20T09:20:17;7.53;;;6.35;;
40931;SDS011;36257;46.052;12.540;2023-12-20T09:22:43;6.75;;;5.45;;
40931;SDS011;36257;46.052;12.540;2023-12-20T09:25:09;6.60;;;6.00;;
40931;SDS011;36257;46.052;12.540;2023-12-20T09:27:36;5.10;;;4.78;;
40931;SDS011;36257;46.052;12.540;2023-12-20T09:30:02;5.85;;;5.25;;
40931;SDS011;36257;46.052;12.540;2023-12-20T09:32:29;4.50;;;4.15;;
40931;SDS011;36257;46.052;12.540;2023-12-20T09:34:54;4.40;;;4.10;;
40931;SDS011;36257;46.052;12.540;2023-12-20T09:37:20;4.78;;;4.47;;
40931;SDS011;36257;46.052;12.540;2023-12-20T09:39:46;3.40;;;3.10;;
40931;SDS011;36257;46.052;12.540;2023-12-20T09:42:11;4.82;;;4.43;;
40931;SDS011;36257;46.052;12.540;2023-12-20T09:44:40;4.78;;;4.38;;
40931;SDS011;36257;46.052;12.540;2023-12-20T09:47:07;5.45;;;4.60;;
40931;SDS011;36257;46.052;12.540;2023-12-20T09:49:33;6.05;;;4.82;;
40931;SDS011;36257;46.052;12.540;2023-12-20T09:52:00;5.40;;;4.90;;
40931;SDS011;36257;46.052;12.540;2023-12-20T09:54:26;6.72;;;5.15;;
40931;SDS011;36257;46.052;12.540;2023-12-20T09:56:53;5.20;;;4.72;;
40931;SDS011;36257;46.052;12.540;2023-12-20T09:59:19;5.60;;;5.10;;
40931;SDS011;36257;46.052;12.540;2023-12-20T10:01:45;6.72;;;6.13;;
40931;SDS011;36257;46.052;12.540;2023-12-20T10:04:12;9.45;;;5.97;;
40931;SDS011;36257;46.052;12.540;2023-12-20T10:06:42;7.40;;;6.68;;
40931;SDS011;36257;46.052;12.540;2023-12-20T10:09:08;6.45;;;5.72;;
40931;SDS011;36257;46.052;12.540;2023-12-20T10:11:35;6.00;;;5.50;;
40931;SDS011;36257;46.052;12.540;2023-12-20T10:14:02;5.85;;;5.30;;
40931;SDS011;36257;46.052;12.540;2023-12-20T10:16:29;8.48;;;4.60;;
40931;SDS011;36257;46.052;12.540;2023-12-20T10:18:56;5.82;;;5.13;;
40931;SDS011;36257;46.052;12.540;2023-12-20T10:21:22;6.25;;;5.10;;
40931;SDS011;36257;46.052;12.540;2023-12-20T10:23:48;7.15;;;4.78;;
40931;SDS011;36257;46.052;12.540;2023-12-20T10:26:20;6.53;;;4.00;;
40931;SDS011;36257;46.052;12.540;2023-12-20T10:28:49;8.18;;;4.47;;
40931;SDS011;36257;46.052;12.540;2023-12-20T10:31:32;6.20;;;4.30;;
40931;SDS011;36257;46.052;12.540;2023-12-20T10:33:59;4.20;;;3.80;;
40931;SDS011;36257;46.052;12.540;2023-12-20T10:36:26;4.10;;;3.70;;
40931;SDS011;36257;46.052;12.540;2023-12-20T10:41:30;4.73;;;4.23;;
40931;SDS011;36257;46.052;12.540;2023-12-20T10:43:58;4.53;;;4.07;;
40931;SDS011;36257;46.052;12.540;2023-12-20T10:46:28;4.28;;;3.88;;
40931;SDS011;36257;46.052;12.540;2023-12-20T10:48:55;6.13;;;4.53;;
40931;SDS011;36257;46.052;12.540;2023-12-20T10:51:22;5.15;;;4.25;;
40931;SDS011;36257;46.052;12.540;2023-12-20T10:53:51;4.13;;;3.83;;
40931;SDS011;36257;46.052;12.540;2023-12-20T10:56:18;4.55;;;3.92;;
40931;SDS011;36257;46.052;12.540;2023-12-20T11:01:12;4.67;;;4.20;;
40931;SDS011;36257;46.052;12.540;2023-12-20T11:03:42;6.65;;;3.70;;
40931;SDS011;36257;46.052;12.540;2023-12-20T11:06:29;5.75;;;3.90;;
40931;SDS011;36257;46.052;12.540;2023-12-20T11:09:18;4.85;;;3.47;;
40931;SDS011;36257;46.052;12.540;2023-12-20T11:12:04;4.05;;;3.60;;
40931;SDS011;36257;46.052;12.540;2023-12-20T11:14:46;4.10;;;3.63;;
40931;SDS011;36257;46.052;12.540;2023-12-20T11:17:13;9.80;;;4.78;;
40931;SDS011;36257;46.052;12.540;2023-12-20T11:20:24;6.28;;;4.82;;
40931;SDS011;36257;46.052;12.540;2023-12-20T11:22:32;7.47;;;5.13;;
40931;SDS011;36257;46.052;12.540;2023-12-20T11:25:06;6.60;;;5.10;;
40931;SDS011;36257;46.052;12.540;2023-12-20T11:27:33;6.57;;;5.72;;
40931;SDS011;36257;46.052;12.540;2023-12-20T11:29:59;7.00;;;5.95;;
40931;SDS011;36257;46.052;12.540;2023-12-20T11:32:31;8.32;;;6.97;;
40931;SDS011;36257;46.052;12.540;2023-12-20T11:35:02;10.43;;;7.53;;
40931;SDS011;36257;46.052;12.540;2023-12-20T11:37:43;10.50;;;7.80;;
40931;SDS011;36257;46.052;12.540;2023-12-20T11:40:13;12.80;;;8.77;;
40931;SDS011;36257;46.052;12.540;2023-12-20T11:42:41;12.45;;;10.00;;
40931;SDS011;36257;46.052;12.540;2023-12-20T11:45:11;11.98;;;10.63;;
40931;SDS011;36257;46.052;12.540;2023-12-20T11:47:40;17.48;;;12.13;;
40931;SDS011;36257;46.052;12.540;2023-12-20T11:50:10;17.33;;;12.80;;
40931;SDS011;36257;46.052;12.540;2023-12-20T11:52:36;13.88;;;12.40;;
40931;SDS011;36257;46.052;12.540;2023-12-20T11:55:02;14.43;;;12.32;;
40931;SDS011;36257;46.052;12.540;2023-12-20T11:57:28;12.38;;;11.07;;
40931;SDS011;36257;46.052;12.540;2023-12-20T11:59:55;14.30;;;11.25;;
40931;SDS011;36257;46.052;12.540;2023-12-20T12:02:21;14.57;;;10.88;;
40931;SDS011;36257;46.052;12.540;2023-12-20T12:04:48;11.90;;;10.68;;
40931;SDS011;36257;46.052;12.540;2023-12-20T12:07:14;15.52;;;10.95;;
40931;SDS011;36257;46.052;12.540;2023-12-20T12:09:39;10.57;;;9.30;;
40931;SDS011;36257;46.052;12.540;2023-12-20T12:12:05;12.85;;;10.38;;
40931;SDS011;36257;46.052;12.540;2023-12-20T12:14:31;10.55;;;9.13;;
40931;SDS011;36257;46.052;12.540;2023-12-20T12:16:57;11.50;;;9.70;;
40931;SDS011;36257;46.052;12.540;2023-12-20T12:19:23;15.93;;;11.13;;
40931;SDS011;36257;46.052;12.540;2023-12-20T12:22:11;12.82;;;10.68;;
40931;SDS011;36257;46.052;12.540;2023-12-20T12:24:40;16.20;;;10.90;;
40931;SDS011;36257;46.052;12.540;2023-12-20T12:27:07;12.02;;;10.65;;
40931;SDS011;36257;46.052;12.540;2023-12-20T12:29:36;11.35;;;10.23;;
40931;SDS011;36257;46.052;12.540;2023-12-20T12:32:06;12.73;;;10.90;;
40931;SDS011;36257;46.052;12.540;2023-12-20T12:34:33;11.68;;;10.50;;
40931;SDS011;36257;46.052;12.540;2023-12-20T12:36:59;12.23;;;10.97;;
40931;SDS011;36257;46.052;12.540;2023-12-20T12:39:25;13.30;;;11.90;;
40931;SDS011;36257;46.052;12.540;2023-12-20T12:41:51;18.88;;;12.90;;
40931;SDS011;36257;46.052;12.540;2023-12-20T12:44:17;14.52;;;13.10;;
40931;SDS011;36257;46.052;12.540;2023-12-20T12:46:46;17.77;;;13.80;;
40931;SDS011;36257;46.052;12.540;2023-12-20T12:49:12;17.20;;;15.40;;
40931;SDS011;36257;46.052;12.540;2023-12-20T12:51:38;19.70;;;15.55;;
40931;SDS011;36257;46.052;12.540;2023-12-20T12:54:04;19.98;;;17.88;;
40931;SDS011;36257;46.052;12.540;2023-12-20T12:56:30;19.52;;;17.42;;
40931;SDS011;36257;46.052;12.540;2023-12-20T12:58:55;18.70;;;16.70;;
40931;SDS011;36257;46.052;12.540;2023-12-20T13:01:21;23.08;;;20.10;;
40931;SDS011;36257;46.052;12.540;2023-12-20T13:03:47;21.63;;;19.35;;
40931;SDS011;36257;46.052;12.540;2023-12-20T13:06:12;24.98;;;21.92;;
40931;SDS011;36257;46.052;12.540;2023-12-20T13:08:40;24.30;;;21.70;;
40931;SDS011;36257;46.052;12.540;2023-12-20T13:11:09;27.48;;;24.17;;
40931;SDS011;36257;46.052;12.540;2023-12-20T13:13:35;27.42;;;23.13;;
40931;SDS011;36257;46.052;12.540;2023-12-20T13:16:00;32.10;;;25.45;;
40931;SDS011;36257;46.052;12.540;2023-12-20T13:18:26;29.88;;;26.38;;
40931;SDS011;36257;46.052;12.540;2023-12-20T13:20:52;30.33;;;25.40;;
40931;SDS011;36257;46.052;12.540;2023-12-20T13:23:18;29.65;;;25.30;;
40931;SDS011;36257;46.052;12.540;2023-12-20T13:25:43;28.45;;;23.85;;
40931;SDS011;36257;46.052;12.540;2023-12-20T13:28:12;28.90;;;24.40;;
40931;SDS011;36257;46.052;12.540;2023-12-20T13:30:38;29.90;;;23.92;;
40931;SDS011;36257;46.052;12.540;2023-12-20T13:33:05;28.45;;;24.40;;
40931;SDS011;36257;46.052;12.540;2023-12-20T13:35:31;32.92;;;26.25;;
40931;SDS011;36257;46.052;12.540;2023-12-20T13:37:57;33.08;;;27.60;;
40931;SDS011;36257;46.052;12.540;2023-12-20T13:40:23;31.83;;;27.83;;
40931;SDS011;36257;46.052;12.540;2023-12-20T13:42:49;32.50;;;27.23;;
40931;SDS011;36257;46.052;12.540;2023-12-20T13:45:15;36.92;;;30.15;;
40931;SDS011;36257;46.052;12.540;2023-12-20T13:47:41;37.40;;;31.40;;
40931;SDS011;36257;46.052;12.540;2023-12-20T13:50:07;45.05;;;34.38;;
40931;SDS011;36257;46.052;12.540;2023-12-20T13:52:32;47.83;;;34.92;;
40931;SDS011;36257;46.052;12.540;2023-12-20T13:54:58;43.80;;;34.38;;
40931;SDS011;36257;46.052;12.540;2023-12-20T13:57:24;41.35;;;33.10;;
40931;SDS011;36257;46.052;12.540;2023-12-20T13:59:49;41.88;;;34.30;;
40931;SDS011;36257;46.052;12.540;2023-12-20T14:02:15;44.35;;;33.67;;
40931;SDS011;36257;46.052;12.540;2023-12-20T14:04:41;42.35;;;32.95;;
40931;SDS011;36257;46.052;12.540;2023-12-20T14:07:07;47.78;;;34.22;;
40931;SDS011;36257;46.052;12.540;2023-12-20T14:09:34;39.50;;;32.30;;
40931;SDS011;36257;46.052;12.540;2023-12-20T14:12:00;38.20;;;31.00;;
40931;SDS011;36257;46.052;12.540;2023-12-20T14:14:25;34.85;;;29.00;;
40931;SDS011;36257;46.052;12.540;2023-12-20T14:16:51;36.03;;;27.65;;
40931;SDS011;36257;46.052;12.540;2023-12-20T14:19:17;33.30;;;28.40;;
40931;SDS011;36257;46.052;12.540;2023-12-20T14:21:43;35.60;;;26.42;;
40931;SDS011;36257;46.052;12.540;2023-12-20T14:24:11;33.17;;;27.15;;
40931;SDS011;36257;46.052;12.540;2023-12-20T14:26:39;31.10;;;26.42;;
40931;SDS011;36257;46.052;12.540;2023-12-20T14:29:08;31.10;;;26.00;;
40931;SDS011;36257;46.052;12.540;2023-12-20T14:31:34;30.88;;;24.95;;
40931;SDS011;36257;46.052;12.540;2023-12-20T14:34:00;27.38;;;24.10;;
40931;SDS011;36257;46.052;12.540;2023-12-20T14:36:28;33.05;;;26.33;;